Time;durP1;ratioP1;P1;durP2;ratioP2;P2;SDS_P1;SDS_P2;PMS_P1;PMS_P2;Temp;Humidity;BMP_temperature;BMP_pressure;BME280_temperature;BME280_humidity;BME280_pressure;Samples;Min_cycle;Max_cycle;Signal;HPM_P1;HPM_P2
2021/07/18 00:01:04;;;;;;;44.10;22.92;;;;;;;14.71;96.45;99549.84;5060159;28;20029;-67
2021/07/18 00:03:30;;;;;;;323.33;29.02;;;;;;;14.60;97.24;99551.84;5062881;28;20017;-67
2021/07/18 00:05:56;;;;;;;124.75;25.55;;;;;;;14.59;97.80;99550.13;5061420;28;20312;-67
2021/07/18 00:08:21;;;;;;;29.88;17.75;;;;;;;14.64;97.55;99564.13;5062793;28;20036;-67
2021/07/18 00:10:48;;;;;;;38.13;20.80;;;;;;;14.73;97.69;99628.44;5061330;28;20320;-67
2021/07/18 00:13:13;;;;;;;43.42;23.88;;;;;;;14.73;97.85;99577.19;5058027;28;20012;-67
2021/07/18 00:15:39;;;;;;;55.53;28.33;;;;;;;14.74;97.90;99568.31;5058850;28;20043;-67
2021/07/18 00:18:04;;;;;;;50.30;25.10;;;;;;;14.68;98.08;99556.09;5058812;28;20240;-67
2021/07/18 00:20:30;;;;;;;85.70;27.70;;;;;;;14.68;98.78;99560.53;5061081;28;20012;-67
2021/07/18 00:22:55;;;;;;;43.72;23.10;;;;;;;14.60;97.96;99563.34;5064563;28;20077;-67
2021/07/18 00:25:21;;;;;;;40.90;24.50;;;;;;;14.55;98.09;99553.72;5061973;28;20040;-67
2021/07/18 00:27:46;;;;;;;58.53;24.92;;;;;;;14.48;98.08;99562.69;5058442;28;20020;-67
2021/07/18 00:30:12;;;;;;;162.75;26.65;;;;;;;14.50;98.22;99566.19;5057619;28;20013;-67
2021/07/18 00:32:38;;;;;;;45.92;25.38;;;;;;;14.53;98.32;99563.50;5058556;28;20008;-67
2021/07/18 00:35:05;;;;;;;39.38;23.35;;;;;;;14.53;97.91;99561.69;5058178;28;20084;-67
2021/07/18 00:37:30;;;;;;;36.20;20.88;;;;;;;14.42;97.62;99560.16;5057571;28;20072;-67
2021/07/18 00:39:56;;;;;;;42.63;20.88;;;;;;;14.41;97.21;99561.09;5057588;28;20025;-67
2021/07/18 00:42:21;;;;;;;35.97;18.38;;;;;;;14.36;97.53;99562.94;5060600;28;20078;-67
2021/07/18 00:44:47;;;;;;;62.55;20.90;;;;;;;14.31;97.67;99548.94;5057464;28;20025;-67
2021/07/18 00:47:13;;;;;;;63.75;20.13;;;;;;;14.23;97.39;99545.53;5059862;28;20239;-67
2021/07/18 00:49:38;;;;;;;126.70;19.73;;;;;;;14.12;97.24;99550.16;5060553;28;20029;-67
2021/07/18 00:52:05;;;;;;;64.97;18.75;;;;;;;14.08;97.48;99545.81;5064155;28;20028;-67
2021/07/18 00:54:30;;;;;;;123.07;20.55;;;;;;;14.01;97.63;99545.06;5065279;28;20025;-67
2021/07/18 00:56:57;;;;;;;104.53;17.27;;;;;;;13.94;97.96;99539.91;5065268;28;20021;-67
2021/07/18 00:59:24;;;;;;;44.70;19.55;;;;;;;14.00;98.08;99605.97;5065171;28;20384;-67
2021/07/18 01:01:50;;;;;;;49.97;19.88;;;;;;;14.01;98.33;99568.00;5064065;28;20223;-67
2021/07/18 01:04:15;;;;;;;37.00;22.85;;;;;;;13.99;98.32;99774.50;5046069;28;20025;-67
2021/07/18 01:06:41;;;;;;;44.20;24.63;;;;;;;13.97;98.57;99698.66;5048522;28;20045;-67
2021/07/18 01:09:07;;;;;;;36.95;22.45;;;;;;;13.99;98.68;99678.34;5047112;28;20329;-67
2021/07/18 01:11:32;;;;;;;37.88;21.95;;;;;;;14.03;98.42;99677.38;5047246;28;20021;-67
2021/07/18 01:13:57;;;;;;;42.67;22.40;;;;;;;14.05;98.38;99673.81;5047949;28;20021;-67
2021/07/18 01:16:23;;;;;;;40.85;23.45;;;;;;;13.98;98.79;99655.44;5048309;28;20264;-67
2021/07/18 01:18:48;;;;;;;31.10;20.42;;;;;;;13.94;98.18;99643.13;5050161;28;20036;-67
2021/07/18 01:21:14;;;;;;;29.25;18.33;;;;;;;13.87;97.66;99641.47;5052211;28;20045;-67
2021/07/18 01:23:40;;;;;;;28.25;17.85;;;;;;;13.82;97.56;99608.91;5054702;28;20028;-67
2021/07/18 01:26:06;;;;;;;29.52;17.13;;;;;;;13.78;97.20;99609.88;5049995;28;20251;-67
2021/07/18 01:28:31;;;;;;;26.52;17.75;;;;;;;13.65;96.98;99593.34;5057070;28;20312;-67
2021/07/18 01:30:57;;;;;;;33.45;19.33;;;;;;;13.66;97.91;99602.13;5056572;28;20044;-67
2021/07/18 01:33:23;;;;;;;32.58;21.40;;;;;;;13.72;98.11;99602.91;5058429;28;20076;-67
2021/07/18 01:35:48;;;;;;;39.05;22.08;;;;;;;13.77;98.18;99619.59;5057579;28;20373;-67
2021/07/18 01:38:14;;;;;;;46.50;21.85;;;;;;;13.74;98.11;99672.56;5060191;28;20063;-67
2021/07/18 01:40:40;;;;;;;35.35;22.63;;;;;;;13.86;98.41;99706.75;5057691;28;20310;-67
2021/07/18 01:43:06;;;;;;;36.70;22.23;;;;;;;13.84;98.22;99721.81;5048596;28;20316;-67
2021/07/18 01:45:31;;;;;;;41.45;23.13;;;;;;;13.87;98.27;99726.19;5048227;28;20021;-67
2021/07/18 01:47:57;;;;;;;44.90;22.85;;;;;;;14.00;98.28;99780.69;5047817;28;20062;-67
2021/07/18 01:50:23;;;;;;;30.08;17.73;;;;;;;14.09;98.75;99770.84;5046890;28;20304;-67
2021/07/18 01:52:49;;;;;;;29.23;15.70;;;;;;;14.18;98.73;99791.00;5047769;28;20017;-67
2021/07/18 01:55:19;;;;;;;40.58;18.58;;;;;;;14.46;99.37;99829.44;5046574;28;20251;-67
2021/07/18 01:57:45;;;;;;;32.42;15.18;;;;;;;14.66;99.69;99840.56;5047862;28;20041;-67
2021/07/18 02:00:12;;;;;;;30.75;15.63;;;;;;;14.93;99.77;99886.03;5049028;28;20308;-67
2021/07/18 02:02:42;;;;;;;31.90;14.98;;;;;;;15.08;99.84;99900.81;5047988;28;20028;-67
2021/07/18 02:05:08;;;;;;;29.65;13.68;;;;;;;15.16;99.59;99905.09;5046373;28;20013;-67
2021/07/18 02:07:34;;;;;;;22.15;11.93;;;;;;;15.22;99.18;99920.00;5046559;28;20037;-67
2021/07/18 02:09:59;;;;;;;25.20;11.35;;;;;;;15.38;99.06;99936.59;5048317;28;20023;-67
2021/07/18 02:12:25;;;;;;;21.00;10.77;;;;;;;15.36;98.36;99955.16;5047899;28;20016;-67
2021/07/18 02:14:50;;;;;;;18.27;9.82;;;;;;;15.35;97.70;99926.88;5058881;28;20062;-67
2021/07/18 02:17:16;;;;;;;26.52;10.00;;;;;;;15.33;97.69;99944.59;5059108;28;20028;-67
2021/07/18 02:19:41;;;;;;;18.50;9.68;;;;;;;15.31;97.31;99970.25;5060218;28;20017;-67
2021/07/18 02:22:08;;;;;;;23.65;9.38;;;;;;;15.37;97.17;99933.03;5059239;28;20370;-67
2021/07/18 02:24:34;;;;;;;18.38;9.43;;;;;;;15.40;96.95;99919.72;5060384;28;20021;-67
2021/07/18 02:26:59;;;;;;;24.50;9.15;;;;;;;15.43;96.54;99909.06;5058983;28;20106;-67
2021/07/18 02:29:25;;;;;;;17.90;9.30;;;;;;;15.41;96.54;99902.88;5058988;28;20343;-67
2021/07/18 02:31:52;;;;;;;18.75;9.02;;;;;;;15.33;96.46;99896.84;5060301;28;20044;-67
2021/07/18 02:34:17;;;;;;;22.58;10.23;;;;;;;15.23;96.35;99896.09;5060243;28;20312;-67
2021/07/18 02:36:43;;;;;;;20.40;10.70;;;;;;;14.99;94.77;99882.41;5057245;28;20029;-67
2021/07/18 02:39:08;;;;;;;18.10;9.55;;;;;;;14.90;95.06;99874.59;5055643;28;20070;-67
2021/07/18 02:41:36;;;;;;;15.48;10.13;;;;;;;14.77;95.17;99867.75;5055668;28;20028;-67
2021/07/18 02:44:08;;;;;;;17.67;10.38;;;;;;;14.65;95.04;99862.69;5058501;28;20313;-67
2021/07/18 02:46:34;;;;;;;18.90;9.32;;;;;;;14.67;96.14;99897.97;5057397;28;20062;-67
2021/07/18 02:49:00;;;;;;;16.08;8.90;;;;;;;14.48;95.69;99934.47;5055569;28;20032;-67
2021/07/18 02:51:25;;;;;;;30.83;10.27;;;;;;;14.51;96.30;99954.75;5053568;28;20021;-67
2021/07/18 02:53:51;;;;;;;16.48;11.10;;;;;;;14.22;95.09;99980.72;5045981;28;20317;-67
2021/07/18 02:56:17;;;;;;;17.73;11.13;;;;;;;14.18;95.10;99986.97;5052257;28;20025;-67
2021/07/18 02:58:42;;;;;;;21.73;12.75;;;;;;;14.14;95.37;99979.94;5059441;28;20374;-67
2021/07/18 03:01:07;;;;;;;22.58;13.32;;;;;;;14.14;96.34;99996.69;5058689;28;20036;-67
2021/07/18 03:03:33;;;;;;;18.95;11.52;;;;;;;14.12;96.76;100002.91;5058917;28;20025;-67
2021/07/18 03:05:58;;;;;;;18.73;10.27;;;;;;;14.02;96.26;100023.31;5055452;28;20035;-67
2021/07/18 03:08:24;;;;;;;19.25;9.23;;;;;;;13.95;96.56;100048.09;5055395;28;20386;-67
2021/07/18 03:10:49;;;;;;;15.88;9.55;;;;;;;13.93;96.59;100064.91;5058174;28;20029;-67
2021/07/18 03:13:14;;;;;;;19.77;10.40;;;;;;;13.89;97.04;100065.84;5056140;28;20305;-67
2021/07/18 03:15:40;;;;;;;15.40;8.80;;;;;;;14.05;97.60;100038.31;5065660;28;20070;-67
2021/07/18 03:18:08;;;;;;;17.77;7.88;;;;;;;14.04;97.43;100085.06;5067108;28;20029;-67
2021/07/18 03:20:33;;;;;;;15.80;7.90;;;;;;;13.96;97.08;100064.88;5067037;28;20070;-67
2021/07/18 03:22:59;;;;;;;19.65;10.65;;;;;;;13.85;96.76;100099.38;5050709;28;20037;-67
2021/07/18 03:25:24;;;;;;;15.55;9.38;;;;;;;13.57;95.92;100091.72;5045897;28;20359;-67
2021/07/18 03:27:50;;;;;;;18.88;10.85;;;;;;;13.60;96.55;100118.16;5046939;28;20021;-67
2021/07/18 03:30:18;;;;;;;19.45;9.80;;;;;;;13.68;97.13;100124.22;5046929;28;20032;-67
2021/07/18 03:32:44;;;;;;;28.05;10.05;;;;;;;13.65;96.95;100140.13;5062095;28;20017;-67
2021/07/18 03:35:10;;;;;;;19.48;9.10;;;;;;;13.75;97.07;100155.03;5062011;28;20031;-67
2021/07/18 03:37:36;;;;;;;15.35;8.40;;;;;;;13.94;97.45;100146.06;5063662;28;20240;-67
2021/07/18 03:40:07;;;;;;;16.27;7.78;;;;;;;13.99;97.11;100181.31;5065543;28;20021;-67
2021/07/18 03:42:33;;;;;;;16.25;7.93;;;;;;;13.96;96.83;100181.34;5064460;28;20066;-67
2021/07/18 03:44:58;;;;;;;21.65;9.68;;;;;;;13.97;96.58;100183.09;5063433;28;20020;-67
2021/07/18 03:47:24;;;;;;;16.48;8.75;;;;;;;13.62;94.72;100195.72;5061809;28;20009;-67
2021/07/18 03:49:49;;;;;;;14.98;8.65;;;;;;;13.65;95.33;100206.28;5063224;28;20036;-67
2021/07/18 03:52:14;;;;;;;16.95;9.20;;;;;;;13.53;94.17;100220.47;5061005;28;20017;-67
2021/07/18 03:54:40;;;;;;;25.05;12.10;;;;;;;13.48;94.86;100234.63;5061837;28;20095;-67
2021/07/18 03:57:05;;;;;;;16.90;9.27;;;;;;;13.55;95.85;100231.03;5063068;28;20021;-67
2021/07/18 03:59:31;;;;;;;17.27;9.63;;;;;;;13.47;95.31;100251.34;5061538;28;20029;-67
2021/07/18 04:01:56;;;;;;;19.27;9.82;;;;;;;13.56;95.97;100276.03;5063163;28;20013;-67
2021/07/18 04:04:22;;;;;;;16.33;9.30;;;;;;;13.61;96.50;100263.66;5061361;28;20025;-67
2021/07/18 04:06:47;;;;;;;20.83;9.90;;;;;;;13.77;96.35;100302.38;5061451;28;20320;-67
2021/07/18 04:09:12;;;;;;;29.08;10.15;;;;;;;13.79;96.62;100305.88;5062840;28;20037;-67
2021/07/18 04:11:38;;;;;;;20.95;9.07;;;;;;;13.94;96.47;100320.78;5062453;28;20084;-67
2021/07/18 04:14:03;;;;;;;17.55;10.13;;;;;;;14.19;96.53;100359.47;5061693;28;20092;-67
2021/07/18 04:16:29;;;;;;;18.42;8.82;;;;;;;14.36;96.18;100362.91;5061167;28;20076;-67
2021/07/18 04:18:54;;;;;;;17.27;8.27;;;;;;;14.18;95.51;100347.13;5062837;28;20066;-67
2021/07/18 04:21:19;;;;;;;18.40;8.05;;;;;;;14.12;94.96;100315.38;5061532;28;20193;-67
2021/07/18 04:23:48;;;;;;;24.58;8.27;;;;;;;14.11;94.80;100292.44;5060704;28;20024;-67
2021/07/18 04:26:14;;;;;;;17.52;6.65;;;;;;;14.21;95.26;100310.03;5061294;28;20182;-67
2021/07/18 04:28:40;;;;;;;11.50;6.90;;;;;;;14.14;94.79;100340.09;5061000;28;20021;-67
2021/07/18 04:31:06;;;;;;;13.35;6.90;;;;;;;14.14;95.18;100340.09;5060628;28;20419;-67
2021/07/18 04:33:31;;;;;;;19.55;7.95;;;;;;;14.18;95.03;100434.53;5059530;28;20043;-67
2021/07/18 04:35:56;;;;;;;21.90;7.65;;;;;;;14.16;95.10;100290.63;5059093;28;20089;-67
2021/07/18 04:38:22;;;;;;;18.92;7.47;;;;;;;14.17;94.89;100271.19;5057608;28;20259;-67
2021/07/18 04:40:47;;;;;;;23.05;7.10;;;;;;;14.24;94.74;100286.19;5057870;28;20024;-67
2021/07/18 04:43:13;;;;;;;12.82;6.60;;;;;;;14.29;94.01;100265.84;5057627;28;20243;-67
2021/07/18 04:45:38;;;;;;;14.55;7.10;;;;;;;14.05;92.27;100260.72;5060148;28;20356;-67
2021/07/18 04:48:04;;;;;;;13.55;7.05;;;;;;;14.07;92.93;100248.31;5047908;28;20023;-67
2021/07/18 04:50:29;;;;;;;13.93;7.57;;;;;;;14.62;93.02;100270.84;5048898;28;20052;-67
2021/07/18 04:52:55;;;;;;;15.55;6.55;;;;;;;15.45;92.43;100326.53;5047973;28;20041;-67
2021/07/18 04:55:21;;;;;;;13.95;5.70;;;;;;;16.02;90.09;100333.72;5060855;28;20021;-67
2021/07/18 04:57:47;;;;;;;8.90;5.10;;;;;;;16.20;86.96;100314.00;5060149;28;20328;-67
2021/07/18 05:00:18;;;;;;;16.25;5.72;;;;;;;16.77;85.45;100324.56;5057450;28;20074;-67
2021/07/18 05:02:44;;;;;;;14.65;4.78;;;;;;;17.18;84.90;100322.03;5056856;28;20071;-67
2021/07/18 05:05:10;;;;;;;19.42;4.60;;;;;;;17.41;84.10;100302.06;5065119;28;20033;-67
2021/07/18 05:07:56;;;;;;;10.27;4.97;;;;;;;17.93;80.17;100306.28;5064894;28;20108;-67
2021/07/18 05:10:29;;;;;;;13.20;4.75;;;;;;;18.20;79.71;100280.78;5064999;28;20083;-67
2021/07/18 05:12:57;;;;;;;14.30;5.60;;;;;;;18.55;78.70;100225.69;5064863;28;20067;-67
2021/07/18 05:15:25;;;;;;;7.43;3.95;;;;;;;19.04;77.58;100219.88;5064897;28;20365;-67
2021/07/18 05:17:50;;;;;;;14.80;3.88;;;;;;;19.32;76.40;100202.19;5064865;28;20028;-67
2021/07/18 05:20:18;;;;;;;10.60;4.03;;;;;;;19.44;76.00;100199.16;5064836;28;20091;-67
2021/07/18 05:22:44;;;;;;;12.70;4.22;;;;;;;19.44;76.10;100180.44;5063056;28;20020;-67
2021/07/18 05:25:10;;;;;;;17.95;4.30;;;;;;;19.26;75.22;100154.28;5059921;28;20220;-67
2021/07/18 05:27:37;;;;;;;15.68;5.13;;;;;;;19.30;75.66;100163.94;5059638;28;20058;-67
2021/07/18 05:30:08;;;;;;;12.63;4.03;;;;;;;19.84;74.53;100172.91;5056887;28;20025;-67
2021/07/18 05:32:35;;;;;;;16.13;3.97;;;;;;;19.95;73.32;100170.78;5056833;28;20200;-67
2021/07/18 05:35:00;;;;;;;13.02;4.03;;;;;;;20.30;73.02;100167.84;5050401;28;20307;-67
2021/07/18 05:37:25;;;;;;;14.07;4.15;;;;;;;20.46;72.91;100146.75;5049189;28;20017;-67
2021/07/18 05:39:51;;;;;;;8.93;3.08;;;;;;;20.56;73.41;100149.06;5049154;28;20096;-67
2021/07/18 05:42:16;;;;;;;7.63;2.83;;;;;;;21.27;71.34;100167.88;5050111;28;20044;-67
2021/07/18 05:44:42;;;;;;;12.27;3.67;;;;;;;20.90;71.87;100138.00;5049731;28;20021;-67
2021/07/18 05:47:09;;;;;;;4.82;2.70;;;;;;;21.39;71.91;100154.00;5049356;28;20064;-67
2021/07/18 05:49:35;;;;;;;8.55;3.20;;;;;;;21.25;72.28;100150.97;5056852;28;20020;-67
2021/07/18 05:52:00;;;;;;;9.73;3.45;;;;;;;20.77;71.15;100116.19;5056275;28;20025;-67
2021/07/18 05:54:26;;;;;;;5.70;2.45;;;;;;;21.10;69.78;100119.41;5050952;28;20317;-67
2021/07/18 05:56:51;;;;;;;12.65;3.05;;;;;;;21.71;69.20;100139.31;5048509;28;20045;-67
2021/07/18 05:59:17;;;;;;;13.02;3.03;;;;;;;22.06;69.39;100130.72;5049671;28;20013;-67
2021/07/18 06:01:42;;;;;;;5.43;2.70;;;;;;;22.19;67.01;100131.94;5049752;28;20092;-67
2021/07/18 06:04:08;;;;;;;9.10;2.50;;;;;;;22.25;66.91;100123.63;5049399;28;20029;-67
2021/07/18 06:06:33;;;;;;;9.10;2.80;;;;;;;22.46;66.40;100114.66;5049857;28;20021;-67
2021/07/18 06:08:58;;;;;;;9.00;2.53;;;;;;;23.22;65.45;100134.41;5048664;28;20256;-67
2021/07/18 06:11:26;;;;;;;6.55;2.38;;;;;;;22.92;65.30;100122.41;5049833;28;20056;-67
2021/07/18 06:13:51;;;;;;;5.20;2.33;;;;;;;23.52;63.15;100124.06;5050007;28;20209;-67
2021/07/18 06:16:17;;;;;;;7.90;2.40;;;;;;;23.69;63.96;100116.06;5049839;28;20014;-67
2021/07/18 06:18:42;;;;;;;7.32;2.60;;;;;;;23.47;63.25;100091.19;5056870;28;20308;-67
2021/07/18 06:21:07;;;;;;;7.40;2.30;;;;;;;23.86;62.47;100095.47;5058163;28;20084;-67
2021/07/18 06:23:33;;;;;;;7.10;2.20;;;;;;;24.24;60.46;100113.25;5060320;28;20024;-67
2021/07/18 06:25:58;;;;;;;7.13;2.10;;;;;;;24.32;59.97;100094.88;5058151;28;20088;-67
2021/07/18 06:28:24;;;;;;;8.38;2.67;;;;;;;24.35;60.67;100159.31;5058605;28;20024;-67
2021/07/18 06:30:50;;;;;;;8.32;2.38;;;;;;;23.96;61.74;100107.53;5059207;28;20220;-67
2021/07/18 06:33:16;;;;;;;7.57;2.47;;;;;;;24.42;60.83;100117.69;5058963;28;20209;-68
2021/07/18 06:35:42;;;;;;;7.65;2.75;;;;;;;24.25;60.26;100090.78;5060286;28;20076;-68
2021/07/18 06:38:07;;;;;;;4.30;2.10;;;;;;;24.65;61.11;100103.91;5057484;28;20024;-68
2021/07/18 06:40:32;;;;;;;6.85;2.28;;;;;;;24.70;60.19;100091.06;5058869;28;20023;-68
2021/07/18 06:42:58;;;;;;;8.20;2.15;;;;;;;24.50;59.16;100064.31;5059205;28;20028;-68
2021/07/18 06:45:23;;;;;;;5.55;2.17;;;;;;;24.79;58.25;100052.00;5065677;28;20080;-68
2021/07/18 06:47:49;;;;;;;10.57;2.58;;;;;;;24.86;58.46;100054.28;5064606;28;20205;-68
2021/07/18 06:50:14;;;;;;;7.35;2.22;;;;;;;24.37;60.43;100021.97;5060849;28;20017;-67
2021/07/18 06:52:40;;;;;;;6.13;2.22;;;;;;;24.80;58.08;100021.41;5059290;28;20016;-67
2021/07/18 06:55:07;;;;;;;8.75;2.00;;;;;;;24.32;57.96;99998.00;5060141;28;20009;-67
2021/07/18 06:57:32;;;;;;;7.68;1.95;;;;;;;25.13;58.19;100014.16;5058796;28;20075;-67
2021/07/18 06:59:58;;;;;;;12.80;2.20;;;;;;;24.50;59.12;99986.25;5056702;28;20339;-67
2021/07/18 07:02:23;;;;;;;5.65;2.08;;;;;;;24.38;57.66;99962.69;5050458;28;20026;-67
2021/07/18 07:04:49;;;;;;;10.10;2.00;;;;;;;24.52;57.20;99962.78;5059796;28;20067;-67
2021/07/18 07:07:14;;;;;;;6.72;1.95;;;;;;;25.00;56.24;99964.59;5051222;28;20028;-67
2021/07/18 07:09:40;;;;;;;9.40;2.13;;;;;;;24.54;55.79;99950.13;5055821;28;20044;-67
2021/07/18 07:12:06;;;;;;;5.63;1.88;;;;;;;25.12;56.13;99964.75;5059142;28;20020;-67
2021/07/18 07:14:31;;;;;;;9.38;1.88;;;;;;;24.65;55.97;99928.88;5049828;28;20025;-67
2021/07/18 07:16:57;;;;;;;5.78;2.15;;;;;;;24.71;55.90;99920.44;5054111;28;20584;-67
2021/07/18 07:19:22;;;;;;;5.47;1.98;;;;;;;25.03;56.24;99932.94;5057331;28;20093;-68
2021/07/18 07:21:47;;;;;;;8.18;2.13;;;;;;;25.11;55.00;99941.47;5059050;28;20021;-68
2021/07/18 07:24:13;;;;;;;6.88;2.03;;;;;;;24.95;55.06;99916.38;5049920;28;20316;-68
2021/07/18 07:26:38;;;;;;;6.18;1.95;;;;;;;25.37;53.95;99937.28;5049617;28;20022;-68
2021/07/18 07:29:04;;;;;;;5.95;2.05;;;;;;;24.94;55.48;99917.34;5049948;28;20021;-68
2021/07/18 07:31:30;;;;;;;8.23;1.90;;;;;;;25.85;54.54;99936.19;5050598;28;20219;-68
2021/07/18 07:33:56;;;;;;;5.80;1.70;;;;;;;25.44;54.78;99905.44;5058979;28;20009;-68
2021/07/18 07:36:22;;;;;;;7.25;1.80;;;;;;;25.97;52.82;99921.97;5050032;28;20053;-68
2021/07/18 07:38:48;;;;;;;3.80;1.83;;;;;;;26.01;52.58;99907.34;5051251;28;20033;-68
2021/07/18 07:41:14;;;;;;;4.90;1.88;;;;;;;25.96;53.09;99904.00;5048368;28;20362;-68
2021/07/18 07:43:39;;;;;;;5.63;1.85;;;;;;;26.27;52.49;99903.88;5054500;28;20059;-68
2021/07/18 07:46:05;;;;;;;5.05;2.17;;;;;;;26.42;52.36;99902.91;5053430;28;20028;-67
2021/07/18 07:48:30;;;;;;;10.20;2.20;;;;;;;25.93;54.09;99877.22;5056621;28;20016;-67
2021/07/18 07:50:57;;;;;;;6.10;1.98;;;;;;;26.17;53.08;99871.22;5052076;28;20312;-68
2021/07/18 07:53:23;;;;;;;6.45;2.30;;;;;;;25.92;54.58;99853.91;5063323;28;20224;-68
2021/07/18 07:55:49;;;;;;;5.75;2.13;;;;;;;26.69;51.94;99880.44;5059506;28;20033;-68
2021/07/18 07:58:14;;;;;;;4.25;1.70;;;;;;;26.62;51.64;99856.59;5053750;28;20370;-68
2021/07/18 08:00:41;;;;;;;14.02;2.67;;;;;;;26.70;52.04;99848.88;5059237;28;20036;-68
2021/07/18 08:03:06;;;;;;;6.72;1.75;;;;;;;26.52;51.20;99852.75;5063587;28;20027;-68
2021/07/18 08:05:32;;;;;;;3.80;1.70;;;;;;;26.46;51.87;99828.84;5063055;28;20092;-68
2021/07/18 08:07:57;;;;;;;3.65;1.60;;;;;;;27.64;51.37;99871.25;5051773;28;20383;-68
2021/07/18 08:10:23;;;;;;;3.13;1.55;;;;;;;26.63;50.49;99816.00;5056370;28;20013;-68
2021/07/18 08:12:49;;;;;;;7.97;2.08;;;;;;;26.90;52.00;99834.91;5058585;28;20025;-68
2021/07/18 08:15:17;;;;;;;12.68;1.95;;;;;;;27.14;48.75;99849.47;5054665;28;20049;-68
2021/07/18 08:17:43;;;;;;;4.78;1.77;;;;;;;26.55;50.64;99793.13;5049225;28;20089;-68
2021/07/18 08:20:12;;;;;;;6.28;1.65;;;;;;;27.26;49.08;99810.81;5049437;28;20220;-68
2021/07/18 08:22:37;;;;;;;6.30;1.90;;;;;;;26.95;49.34;99784.09;5054381;28;20277;-68
2021/07/18 08:25:05;;;;;;;8.15;2.30;;;;;;;28.24;46.21;99834.47;5047583;28;20055;-68
2021/07/18 08:27:30;;;;;;;3.67;1.98;;;;;;;28.01;48.06;99801.91;5051228;28;20149;-68
2021/07/18 08:29:55;;;;;;;4.65;1.67;;;;;;;28.30;46.83;100467.81;5055061;28;20056;-68
2021/07/18 08:32:21;;;;;;;4.90;1.85;;;;;;;28.27;47.91;100152.94;5056748;28;20092;-68
2021/07/18 08:34:46;;;;;;;9.13;2.08;;;;;;;27.68;49.02;99980.16;5060196;28;20028;-68
2021/07/18 08:37:12;;;;;;;6.10;1.80;;;;;;;28.26;49.63;99973.34;5055604;28;20021;-67
2021/07/18 08:39:37;;;;;;;4.80;2.03;;;;;;;28.03;47.83;99949.69;5048207;28;20017;-67
2021/07/18 08:42:03;;;;;;;7.55;2.10;;;;;;;28.09;48.85;99887.00;5048162;28;20029;-67
2021/07/18 08:44:29;;;;;;;4.60;2.03;;;;;;;28.66;48.44;99901.81;5058238;28;20021;-67
2021/07/18 08:46:54;;;;;;;12.40;6.03;;;;;;;27.36;49.28;99859.75;5054517;28;20028;-67
2021/07/18 08:49:20;;;;;;;3.60;1.60;;;;;;;27.58;50.31;99841.91;5046710;28;20317;-67
2021/07/18 08:51:45;;;;;;;8.50;2.45;;;;;;;27.88;49.62;99830.81;5044425;28;20071;-67
2021/07/18 08:54:11;;;;;;;4.28;2.20;;;;;;;27.72;50.16;99803.09;5044423;28;20079;-67
2021/07/18 08:56:37;;;;;;;10.45;2.30;;;;;;;29.00;47.61;99838.69;5044351;28;20093;-68
2021/07/18 08:59:07;;;;;;;8.32;1.80;;;;;;;29.05;46.28;99854.66;5062413;28;20020;-68
2021/07/18 09:01:33;;;;;;;7.55;1.85;;;;;;;28.55;45.45;99812.34;5060587;28;20017;-68
2021/07/18 09:04:00;;;;;;;6.82;1.90;;;;;;;29.36;46.16;99835.06;5059258;28;20273;-68
2021/07/18 09:06:51;;;;;;;5.70;1.95;;;;;;;30.05;45.25;99826.00;5048563;28;20021;-68
2021/07/18 09:09:18;;;;;;;8.73;2.13;;;;;;;29.65;47.56;99802.97;5048881;28;20049;-69
2021/07/18 09:11:56;;;;;;;5.07;2.00;;;;;;;29.89;45.80;99801.03;5059129;28;20030;-68
2021/07/18 09:14:22;;;;;;;5.00;1.48;;;;;;;29.16;45.80;99771.50;5048554;28;20180;-68
2021/07/18 09:16:50;;;;;;;7.53;1.83;;;;;;;29.61;45.40;99772.50;5058974;28;20056;-68
2021/07/18 09:19:20;;;;;;;6.63;2.10;;;;;;;29.73;44.71;99759.81;5059176;28;20253;-68
2021/07/18 09:22:16;;;;;;;7.85;2.20;;;;;;;29.66;46.87;99753.13;5057350;28;20333;-68
2021/07/18 09:24:45;;;;;;;11.30;2.22;;;;;;;29.43;45.09;99735.94;5049701;28;20036;-68
2021/07/18 09:27:18;;;;;;;7.88;1.98;;;;;;;28.86;47.38;99729.59;5048119;28;20274;-68
2021/07/18 09:29:52;;;;;;;7.65;2.25;;;;;;;29.93;45.19;99746.34;5055938;28;20351;-68
2021/07/18 09:32:21;;;;;;;7.28;2.60;;;;;;;30.15;45.02;99740.06;5057377;28;20391;-68
2021/07/18 09:34:48;;;;;;;12.07;2.58;;;;;;;30.22;45.19;99735.88;5057686;28;20027;-68
2021/07/18 09:37:17;;;;;;;5.22;1.90;;;;;;;29.54;45.52;99678.97;5057266;28;20024;-68
2021/07/18 09:39:56;;;;;;;7.38;2.45;;;;;;;29.64;46.83;99695.41;5053926;28;20021;-68
2021/07/18 09:42:33;;;;;;;9.55;2.30;;;;;;;29.40;46.27;99681.91;5060504;28;20021;-68
2021/07/18 09:45:00;;;;;;;7.05;2.47;;;;;;;29.93;44.43;99686.63;5057304;28;20028;-68
2021/07/18 09:47:27;;;;;;;8.93;2.05;;;;;;;30.73;44.94;99698.94;5059589;28;20084;-68
2021/07/18 09:49:52;;;;;;;9.13;1.90;;;;;;;30.38;44.32;99706.44;5059351;28;20021;-68
2021/07/18 09:52:28;;;;;;;6.80;2.22;;;;;;;28.96;45.00;99623.03;5064065;28;20063;-68
2021/07/18 09:54:58;;;;;;;10.30;1.88;;;;;;;29.62;45.05;99645.81;5064250;28;20029;-68
2021/07/18 09:57:37;;;;;;;8.32;1.92;;;;;;;30.11;45.41;99665.22;5064235;28;20040;-68
2021/07/18 10:00:11;;;;;;;5.97;2.55;;;;;;;29.44;44.89;99625.53;5064156;28;20373;-68
2021/07/18 10:02:42;;;;;;;6.85;2.22;;;;;;;29.74;44.96;99620.41;5064038;28;20216;-68
2021/07/18 10:05:15;;;;;;;8.65;2.25;;;;;;;29.76;45.08;99618.41;5064158;28;20020;-68
2021/07/18 10:07:40;;;;;;;8.75;2.33;;;;;;;29.60;44.04;99607.91;5063953;28;20048;-68
2021/07/18 10:10:06;;;;;;;8.23;2.35;;;;;;;30.10;44.43;99617.34;5064066;28;20025;-68
2021/07/18 10:12:34;;;;;;;9.35;1.90;;;;;;;30.30;44.59;99603.84;5063323;28;20083;-68
2021/07/18 10:15:01;;;;;;;7.18;1.80;;;;;;;29.76;45.01;99592.13;5063894;28;20028;-68
2021/07/18 10:17:29;;;;;;;8.07;2.30;;;;;;;29.80;44.54;99599.03;5064214;28;20306;-68
2021/07/18 10:19:54;;;;;;;5.57;2.17;;;;;;;29.61;44.57;99577.09;5063930;28;20112;-68
2021/07/18 10:22:20;;;;;;;7.22;2.15;;;;;;;29.78;45.42;99568.44;5063862;28;20312;-69
2021/07/18 10:24:47;;;;;;;7.18;2.33;;;;;;;29.26;45.32;99570.94;5063894;28;20028;-68
2021/07/18 10:27:13;;;;;;;6.40;2.75;;;;;;;29.40;45.52;99570.69;5063849;28;20063;-68
2021/07/18 10:29:39;;;;;;;6.55;2.55;;;;;;;29.13;44.92;99554.81;5063226;28;20024;-68
2021/07/18 10:32:07;;;;;;;5.05;2.33;;;;;;;30.02;44.93;99577.25;5063517;28;20121;-68
2021/07/18 10:34:35;;;;;;;5.40;2.08;;;;;;;30.26;45.63;99574.34;5063756;28;20036;-68
2021/07/18 10:37:09;;;;;;;5.78;2.83;;;;;;;29.67;43.71;99541.31;5063784;28;20087;-68
2021/07/18 10:39:36;;;;;;;6.47;2.58;;;;;;;29.88;44.15;99546.81;5062190;28;20038;-68
2021/07/18 10:42:07;;;;;;;7.90;2.45;;;;;;;30.35;44.41;99541.84;5061986;28;20088;-68
2021/07/18 10:44:50;;;;;;;5.70;2.90;;;;;;;30.19;40.60;99518.84;5063871;28;20178;-68
2021/07/18 10:47:16;;;;;;;6.07;2.97;;;;;;;30.62;41.74;99522.25;5063635;28;20025;-68
2021/07/18 10:49:53;;;;;;;5.35;3.10;;;;;;;29.46;41.40;99482.50;5062540;28;20048;-68
2021/07/18 10:52:21;;;;;;;6.25;3.63;;;;;;;29.27;40.72;99474.16;5063405;28;20016;-68
2021/07/18 10:54:47;;;;;;;9.80;3.65;;;;;;;29.27;42.43;99474.16;5063583;28;20067;-68
2021/07/18 10:57:28;;;;;;;7.90;3.50;;;;;;;29.74;41.49;99479.25;5063500;28;20372;-68
2021/07/18 11:00:16;;;;;;;7.50;2.72;;;;;;;29.48;42.91;99469.69;5063592;28;20320;-68
2021/07/18 11:02:42;;;;;;;5.93;3.00;;;;;;;29.40;44.96;99454.06;5063315;28;20224;-68
2021/07/18 11:05:13;;;;;;;6.95;2.58;;;;;;;28.72;44.02;99426.25;5063476;28;20017;-68
2021/07/18 11:07:39;;;;;;;8.23;2.78;;;;;;;29.57;44.33;99456.22;5059872;28;20101;-68
2021/07/18 11:10:20;;;;;;;6.10;3.05;;;;;;;28.90;45.26;99412.09;5043615;28;20033;-68
2021/07/18 11:13:00;;;;;;;8.98;2.75;;;;;;;29.95;44.26;99450.28;5043528;28;20021;-68
2021/07/18 11:15:36;;;;;;;4.90;2.60;;;;;;;30.13;43.21;99448.69;5043491;28;20025;-68
2021/07/18 11:18:05;;;;;;;7.80;2.97;;;;;;;29.76;42.17;99429.28;5044641;28;20039;-68
2021/07/18 11:20:46;;;;;;;7.00;3.03;;;;;;;30.01;40.63;99449.75;5043386;28;20044;-68
2021/07/18 11:23:13;;;;;;;6.55;2.92;;;;;;;29.37;42.61;99408.19;5043336;28;20029;-68